createdAt,value
2018-09-18T00:02:06.624Z,3.53
2018-09-18T00:04:34.865Z,3.43
2018-09-18T00:07:03.078Z,3.70
2018-09-18T00:09:31.217Z,3.77
2018-09-18T00:11:59.354Z,3.93
2018-09-18T00:14:27.500Z,3.70
2018-09-18T00:16:55.639Z,3.70
2018-09-18T00:19:23.818Z,3.63
2018-09-18T00:21:52.013Z,3.50
2018-09-18T00:24:20.184Z,3.67
2018-09-18T00:26:48.356Z,4.17
2018-09-18T00:29:16.669Z,4.60
2018-09-18T00:31:45.187Z,3.47
2018-09-18T00:34:13.375Z,4.10
2018-09-18T00:36:41.589Z,3.83
2018-09-18T00:39:10.434Z,3.73
2018-09-18T00:41:38.593Z,3.80
2018-09-18T00:44:06.742Z,4.40
2018-09-18T00:46:35.179Z,3.73
2018-09-18T00:49:03.397Z,3.60
2018-09-18T00:51:31.625Z,4.17
2018-09-18T00:53:59.805Z,4.00
2018-09-18T00:56:28.005Z,3.60
2018-09-18T00:58:56.176Z,4.60
2018-09-18T01:01:24.428Z,4.10
2018-09-18T01:03:52.584Z,4.13
2018-09-18T01:06:20.750Z,4.17
2018-09-18T01:08:48.957Z,4.57
2018-09-18T01:11:17.147Z,4.40
2018-09-18T01:13:45.309Z,3.93
2018-09-18T01:16:13.461Z,4.10
2018-09-18T01:18:42.644Z,4.17
2018-09-18T01:21:11.537Z,4.10
2018-09-18T01:23:39.682Z,4.47
2018-09-18T01:26:07.969Z,4.30
2018-09-18T01:28:36.764Z,4.33
2018-09-18T01:31:05.347Z,4.50
2018-09-18T01:33:33.828Z,4.30
2018-09-18T01:36:02.018Z,4.30
2018-09-18T01:38:30.148Z,4.60
2018-09-18T01:40:58.301Z,5.20
2018-09-18T01:43:26.441Z,4.90
2018-09-18T01:45:54.601Z,4.47
2018-09-18T01:48:22.759Z,4.67
2018-09-18T01:50:50.950Z,4.60
2018-09-18T01:53:19.081Z,4.97
2018-09-18T01:55:47.266Z,4.33
2018-09-18T01:58:15.410Z,4.20
2018-09-18T02:00:43.570Z,5.07
2018-09-18T02:03:11.692Z,4.20
2018-09-18T02:05:39.849Z,4.70
2018-09-18T02:08:07.993Z,4.90
2018-09-18T02:10:36.184Z,4.50
2018-09-18T02:13:04.354Z,4.77
2018-09-18T02:15:32.505Z,4.87
2018-09-18T02:18:00.665Z,4.50
2018-09-18T02:20:28.847Z,5.03
2018-09-18T02:23:00.106Z,5.17
2018-09-18T02:25:28.256Z,5.10
2018-09-18T02:27:56.397Z,5.30
2018-09-18T02:30:24.525Z,4.73
2018-09-18T02:32:52.677Z,4.60
2018-09-18T02:35:20.814Z,5.10
2018-09-18T02:37:48.973Z,4.70
2018-09-18T02:40:17.112Z,4.50
2018-09-18T02:42:45.269Z,5.10
2018-09-18T02:45:13.402Z,4.27
2018-09-18T02:47:41.558Z,4.87
2018-09-18T02:50:09.689Z,5.00
2018-09-18T02:52:37.909Z,4.60
2018-09-18T02:55:06.136Z,5.27
2018-09-18T02:57:34.293Z,5.10
2018-09-18T03:00:02.432Z,6.17
2018-09-18T03:02:30.611Z,5.93
2018-09-18T03:04:58.765Z,4.40
2018-09-18T03:07:26.934Z,4.70
2018-09-18T03:09:55.136Z,4.20
2018-09-18T03:12:23.292Z,4.60
2018-09-18T03:14:51.430Z,4.50
2018-09-18T03:17:19.613Z,5.10
2018-09-18T03:19:47.725Z,4.53
2018-09-18T03:22:15.877Z,3.83
2018-09-18T03:24:44.005Z,4.43
2018-09-18T03:27:12.155Z,4.90
2018-09-18T03:29:40.284Z,3.50
2018-09-18T03:32:09.418Z,4.00
2018-09-18T03:34:37.559Z,4.30
2018-09-18T03:37:05.717Z,4.87
2018-09-18T03:39:33.873Z,4.50
2018-09-18T03:42:02.010Z,5.00
2018-09-18T03:44:30.152Z,4.50
2018-09-18T03:46:58.317Z,4.80
2018-09-18T03:49:26.508Z,4.97
2018-09-18T03:51:54.642Z,4.67
2018-09-18T03:54:22.765Z,5.00
2018-09-18T03:56:50.928Z,9.20
2018-09-18T03:59:19.065Z,7.57
2018-09-18T04:01:47.210Z,6.30
2018-09-18T04:04:15.367Z,5.13
2018-09-18T04:06:43.489Z,5.00
2018-09-18T04:09:12.132Z,5.57
2018-09-18T04:11:40.658Z,5.63
2018-09-18T04:14:08.909Z,5.60
2018-09-18T04:16:37.038Z,5.20
2018-09-18T04:19:05.216Z,4.93
2018-09-18T04:21:42.561Z,5.37
2018-09-18T04:24:10.734Z,7.10
2018-09-18T04:26:40.157Z,6.07
2018-09-18T04:29:08.885Z,5.97
2018-09-18T04:31:37.922Z,6.17
2018-09-18T04:34:06.088Z,5.03
2018-09-18T04:36:34.253Z,5.70
2018-09-18T04:39:02.493Z,6.40
2018-09-18T04:41:30.642Z,5.97
2018-09-18T04:43:58.799Z,5.40
2018-09-18T04:46:27.002Z,5.33
2018-09-18T04:48:56.174Z,5.37
2018-09-18T04:51:24.352Z,5.40
2018-09-18T04:53:52.521Z,4.60
2018-09-18T04:56:21.194Z,5.90
2018-09-18T04:58:49.345Z,8.80
2018-09-18T05:01:17.490Z,10.90
2018-09-18T05:03:45.629Z,7.20
2018-09-18T05:06:13.749Z,8.17
2018-09-18T05:08:41.877Z,6.10
2018-09-18T05:11:10.037Z,8.37
2018-09-18T05:13:38.208Z,8.60
2018-09-18T05:16:06.405Z,6.90
2018-09-18T05:18:34.565Z,6.13
2018-09-18T05:21:02.750Z,7.70
2018-09-18T05:23:31.958Z,9.40
2018-09-18T05:26:00.093Z,6.50
2018-09-18T05:28:28.246Z,5.83
2018-09-18T05:30:56.393Z,6.70
2018-09-18T05:33:24.529Z,5.57
2018-09-18T05:35:52.665Z,6.60
2018-09-18T05:38:20.877Z,7.70
2018-09-18T05:40:49.041Z,5.90
2018-09-18T05:43:17.181Z,6.00
2018-09-18T05:45:45.326Z,5.30
2018-09-18T05:48:13.843Z,4.70
2018-09-18T05:50:42.589Z,5.50
2018-09-18T05:53:11.457Z,5.20
2018-09-18T05:55:39.600Z,4.93
2018-09-18T05:58:07.754Z,5.60
2018-09-18T06:00:35.890Z,5.20
2018-09-18T06:03:04.029Z,4.97
2018-09-18T06:05:32.181Z,5.10
2018-09-18T06:08:00.321Z,4.93
2018-09-18T06:10:28.486Z,4.43
2018-09-18T06:12:56.640Z,4.77
2018-09-18T06:15:24.781Z,4.13
2018-09-18T06:17:52.910Z,4.83
2018-09-18T06:20:21.183Z,4.40
2018-09-18T06:22:49.361Z,4.30
2018-09-18T06:25:17.520Z,4.53
2018-09-18T06:27:45.639Z,4.00
2018-09-18T06:30:13.778Z,3.60
2018-09-18T06:32:41.918Z,4.23
2018-09-18T06:35:10.074Z,4.17
2018-09-18T06:37:38.217Z,4.10
2018-09-18T06:40:06.394Z,4.33
2018-09-18T06:42:34.630Z,3.73
2018-09-18T06:45:02.769Z,4.20
2018-09-18T06:47:30.905Z,4.40
2018-09-18T06:49:59.034Z,4.10
2018-09-18T06:52:27.153Z,4.10
2018-09-18T06:54:55.294Z,4.20
2018-09-18T06:57:23.484Z,3.87
2018-09-18T06:59:51.617Z,4.07
2018-09-18T07:02:19.755Z,3.77
2018-09-18T07:04:47.920Z,3.90
2018-09-18T07:07:16.062Z,3.40
2018-09-18T07:09:44.197Z,3.73
2018-09-18T07:12:12.394Z,3.80
2018-09-18T07:14:40.602Z,3.30
2018-09-18T07:17:08.830Z,4.03
2018-09-18T07:19:37.053Z,3.53
2018-09-18T07:22:05.208Z,4.40
2018-09-18T07:24:33.349Z,3.17
2018-09-18T07:27:01.579Z,3.83
2018-09-18T07:29:29.840Z,3.97
2018-09-18T07:31:58.163Z,4.10
2018-09-18T07:34:26.400Z,4.37
2018-09-18T07:36:54.648Z,4.00
2018-09-18T07:39:22.923Z,3.80
2018-09-18T07:41:51.111Z,4.03
2018-09-18T07:44:19.309Z,4.10
2018-09-18T07:46:47.554Z,4.90
2018-09-18T07:49:15.704Z,4.00
2018-09-18T07:51:43.857Z,3.90
2018-09-18T07:54:12.007Z,3.60
2018-09-18T07:56:40.158Z,3.87
2018-09-18T07:59:08.326Z,4.23
2018-09-18T08:01:36.500Z,3.60
2018-09-18T08:04:04.679Z,3.47
2018-09-18T08:06:32.938Z,3.83
2018-09-18T08:09:01.150Z,3.63
2018-09-18T08:11:29.295Z,3.97
2018-09-18T08:13:59.710Z,3.87
2018-09-18T08:16:27.875Z,4.23
2018-09-18T08:18:56.205Z,3.80
2018-09-18T08:21:24.270Z,3.83
2018-09-18T08:23:52.402Z,4.10
2018-09-18T08:26:20.539Z,3.90
2018-09-18T08:28:48.664Z,3.90
2018-09-18T08:31:16.817Z,3.83
2018-09-18T08:33:44.945Z,4.20
2018-09-18T08:36:13.094Z,4.10
2018-09-18T08:38:41.290Z,3.80
2018-09-18T08:41:09.474Z,4.23
2018-09-18T08:43:37.684Z,3.97
2018-09-18T08:46:05.980Z,3.70
2018-09-18T08:48:34.037Z,4.40
2018-09-18T08:51:02.399Z,3.83
2018-09-18T08:53:32.341Z,4.43
2018-09-18T08:56:00.512Z,4.20
2018-09-18T08:58:28.700Z,4.10
2018-09-18T09:00:56.785Z,4.57
2018-09-18T09:03:24.956Z,4.03
2018-09-18T09:05:54.612Z,4.10
2018-09-18T09:08:22.812Z,4.27
2018-09-18T09:10:50.989Z,3.83
2018-09-18T09:13:19.134Z,4.37
2018-09-18T09:15:47.282Z,4.30
2018-09-18T09:18:15.420Z,3.80
2018-09-18T09:20:43.484Z,4.13
2018-09-18T09:23:11.806Z,3.90
2018-09-18T09:25:40.020Z,4.00
2018-09-18T09:28:08.158Z,3.67
2018-09-18T09:30:36.291Z,4.30
2018-09-18T09:33:04.504Z,3.83
2018-09-18T09:35:32.735Z,4.10
2018-09-18T09:38:00.893Z,3.60
2018-09-18T09:40:29.177Z,3.80
2018-09-18T09:42:57.305Z,3.53
2018-09-18T09:45:25.958Z,3.90
2018-09-18T09:47:54.094Z,3.73
2018-09-18T09:50:22.333Z,4.13
2018-09-18T09:52:50.455Z,3.53
2018-09-18T09:55:18.607Z,3.60
2018-09-18T09:57:46.756Z,4.20
2018-09-18T10:00:20.409Z,4.23
2018-09-18T10:02:48.984Z,4.20
2018-09-18T10:05:18.362Z,4.00
2018-09-18T10:07:46.684Z,4.07
2018-09-18T10:10:14.879Z,3.77
2018-09-18T10:12:43.073Z,3.53
2018-09-18T10:15:11.334Z,4.10
2018-09-18T10:17:39.744Z,4.40
2018-09-18T10:20:08.389Z,3.97
2018-09-18T10:22:36.732Z,3.93
2018-09-18T10:25:05.154Z,4.23
2018-09-18T10:27:33.320Z,4.57
2018-09-18T10:30:01.536Z,4.63
2018-09-18T10:32:29.849Z,3.87
2018-09-18T10:34:58.020Z,4.30
2018-09-18T10:37:26.267Z,4.40
2018-09-18T10:39:54.385Z,4.40
2018-09-18T10:42:22.595Z,4.50
2018-09-18T10:44:50.851Z,4.10
2018-09-18T10:47:19.015Z,3.90
2018-09-18T10:49:47.206Z,3.93
2018-09-18T10:52:15.346Z,3.80
2018-09-18T10:54:44.022Z,3.80
2018-09-18T10:57:12.144Z,4.00
2018-09-18T10:59:40.394Z,3.80
2018-09-18T11:02:08.781Z,4.07
2018-09-18T11:04:36.793Z,4.13
2018-09-18T11:07:05.248Z,4.50
2018-09-18T11:09:33.628Z,3.93
2018-09-18T11:12:01.762Z,4.00
2018-09-18T11:14:29.822Z,3.70
2018-09-18T11:16:57.968Z,4.10
2018-09-18T11:19:26.226Z,4.20
2018-09-18T11:21:54.387Z,3.70
2018-09-18T11:24:23.613Z,3.90
2018-09-18T11:26:51.878Z,4.50
2018-09-18T11:29:20.035Z,4.50
2018-09-18T11:31:48.217Z,4.13
2018-09-18T11:34:16.356Z,4.03
2018-09-18T11:36:44.485Z,3.57
2018-09-18T11:39:12.645Z,3.77
2018-09-18T11:41:40.774Z,3.70
2018-09-18T11:44:08.953Z,4.20
2018-09-18T11:46:37.532Z,3.83
2018-09-18T11:49:12.341Z,3.30
2018-09-18T11:51:48.739Z,4.13
2018-09-18T11:57:49.800Z,3.80
2018-09-18T12:00:18.044Z,4.00
2018-09-18T12:02:47.230Z,3.97
2018-09-18T12:05:15.745Z,3.60
2018-09-18T12:07:43.910Z,3.70
2018-09-18T12:10:12.052Z,3.87
2018-09-18T12:12:40.346Z,3.67
2018-09-18T12:15:10.242Z,3.93
2018-09-18T12:17:38.367Z,3.70
2018-09-18T12:20:06.481Z,3.87
2018-09-18T12:22:34.896Z,4.10
2018-09-18T12:25:02.993Z,3.63
2018-09-18T12:27:34.088Z,3.60
2018-09-18T12:30:10.397Z,3.90
2018-09-18T12:32:38.710Z,3.87
2018-09-18T12:35:08.261Z,4.07
2018-09-18T12:37:37.079Z,3.77
2018-09-18T12:40:05.761Z,4.13
2018-09-18T12:42:33.998Z,3.80
2018-09-18T12:45:02.629Z,3.93
2018-09-18T12:47:30.754Z,3.70
2018-09-18T12:50:02.816Z,4.30
2018-09-18T12:52:33.371Z,3.37
2018-09-18T12:55:14.782Z,3.90
2018-09-18T12:57:44.235Z,4.27
2018-09-18T13:03:01.721Z,3.97
2018-09-18T13:05:31.462Z,3.80
2018-09-18T13:08:00.115Z,4.30
2018-09-18T13:10:29.946Z,4.80
2018-09-18T13:12:58.062Z,4.00
2018-09-18T13:15:35.942Z,4.20
2018-09-18T13:18:08.555Z,3.90
2018-09-18T13:24:27.361Z,4.00
2018-09-18T13:27:15.060Z,4.77
2018-09-18T13:29:43.184Z,3.50
2018-09-18T13:32:11.331Z,4.27
2018-09-18T13:34:39.502Z,4.30
2018-09-18T13:37:07.604Z,4.30
2018-09-18T13:39:35.771Z,3.93
2018-09-18T13:42:04.725Z,4.63
2018-09-18T13:44:32.843Z,4.17
2018-09-18T13:47:00.974Z,4.10
2018-09-18T13:49:29.118Z,4.53
2018-09-18T13:51:57.377Z,3.93
2018-09-18T13:54:25.429Z,4.07
2018-09-18T13:56:53.571Z,3.87
2018-09-18T13:59:21.714Z,3.73
2018-09-18T14:01:49.931Z,4.80
2018-09-18T14:04:18.041Z,4.30
2018-09-18T14:06:46.132Z,3.83
2018-09-18T14:09:14.247Z,3.67
2018-09-18T14:11:42.422Z,4.03
2018-09-18T14:14:10.641Z,3.30
2018-09-18T14:16:38.731Z,3.50
2018-09-18T14:19:06.879Z,3.93
2018-09-18T14:21:35.138Z,3.77
2018-09-18T14:24:06.074Z,3.97
2018-09-18T14:26:53.681Z,3.70
2018-09-18T14:29:35.206Z,4.30
2018-09-18T14:32:18.294Z,4.17
2018-09-18T14:35:01.562Z,4.10
2018-09-18T14:37:53.457Z,4.20
2018-09-18T14:40:45.750Z,4.40
2018-09-18T14:43:17.758Z,3.70
2018-09-18T14:45:49.930Z,3.97
2018-09-18T14:48:24.882Z,3.60
2018-09-18T14:50:53.831Z,4.53
2018-09-18T14:53:25.207Z,4.53
2018-09-18T14:59:03.628Z,4.20
2018-09-18T15:01:35.671Z,3.63
2018-09-18T15:04:06.600Z,4.00
2018-09-18T15:06:50.512Z,4.00
2018-09-18T15:13:35.867Z,3.73
2018-09-18T15:16:28.664Z,3.80
2018-09-18T15:19:26.540Z,4.00
2018-09-18T15:22:18.169Z,3.93
2018-09-18T15:25:06.571Z,4.00
2018-09-18T15:27:46.951Z,4.10
2018-09-18T15:30:20.359Z,3.93
2018-09-18T15:33:26.799Z,3.90
2018-09-18T15:36:25.858Z,4.10
2018-09-18T15:39:27.715Z,4.80
2018-09-18T15:42:20.604Z,3.90
2018-09-18T15:45:07.670Z,3.50
2018-09-18T15:47:51.216Z,3.83
2018-09-18T16:04:26.830Z,3.80
2018-09-18T16:07:36.581Z,4.10
2018-09-18T16:10:18.303Z,4.33
2018-09-18T16:13:04.137Z,4.13
2018-09-18T16:15:53.452Z,3.60
2018-09-18T16:42:28.824Z,3.73
2018-09-18T16:44:56.929Z,4.20
2018-09-18T16:47:26.179Z,3.90
2018-09-18T16:49:54.395Z,4.23
2018-09-18T16:52:22.589Z,3.87
2018-09-18T16:54:50.823Z,4.27
2018-09-18T16:57:18.929Z,3.40
2018-09-18T16:59:47.124Z,4.63
2018-09-18T17:02:15.321Z,3.97
2018-09-18T17:04:43.443Z,3.93
2018-09-18T17:07:11.680Z,4.20
2018-09-18T17:09:39.842Z,4.00
2018-09-18T17:12:07.977Z,4.03
2018-09-18T17:14:36.128Z,3.73
2018-09-18T17:17:04.296Z,4.97
2018-09-18T17:19:32.448Z,4.13
2018-09-18T17:22:00.647Z,4.33
2018-09-18T17:24:28.817Z,4.27
2018-09-18T17:26:56.926Z,3.83
2018-09-18T17:29:25.090Z,4.10
2018-09-18T17:31:53.272Z,3.77
2018-09-18T17:34:21.416Z,4.60
2018-09-18T17:36:49.558Z,4.50
2018-09-18T17:39:17.698Z,4.13
2018-09-18T17:41:45.874Z,4.40
2018-09-18T17:44:14.018Z,4.10
2018-09-18T17:46:42.261Z,4.50
2018-09-18T17:49:10.402Z,4.17
2018-09-18T17:51:41.183Z,4.10
2018-09-18T17:54:09.326Z,4.83
2018-09-18T17:56:37.464Z,4.40
2018-09-18T17:59:05.593Z,4.67
2018-09-18T18:01:33.733Z,4.57
2018-09-18T18:04:01.876Z,4.67
2018-09-18T18:06:30.068Z,4.57
2018-09-18T18:08:58.203Z,5.07
2018-09-18T18:11:26.429Z,5.47
2018-09-18T18:13:54.599Z,4.90
2018-09-18T18:16:22.757Z,4.80
2018-09-18T18:18:50.951Z,5.30
2018-09-18T18:21:19.092Z,5.83
2018-09-18T18:23:47.251Z,5.00
2018-09-18T18:26:15.446Z,4.87
2018-09-18T18:28:43.642Z,5.40
2018-09-18T18:31:11.773Z,5.53
2018-09-18T18:33:40.139Z,4.50
2018-09-18T18:36:08.335Z,4.97
2018-09-18T18:38:36.525Z,4.63
2018-09-18T18:41:04.748Z,4.93
2018-09-18T18:43:32.904Z,4.87
2018-09-18T18:46:01.439Z,5.10
2018-09-18T18:48:29.673Z,4.43
2018-09-18T18:50:57.809Z,5.10
2018-09-18T18:53:25.937Z,5.00
2018-09-18T18:55:54.108Z,4.97
2018-09-18T18:58:22.273Z,5.20
2018-09-18T19:00:50.429Z,5.67
2018-09-18T19:03:18.628Z,5.20
2018-09-18T19:05:46.777Z,4.53
2018-09-18T19:08:14.938Z,5.10
2018-09-18T19:10:43.101Z,4.77
2018-09-18T19:13:11.288Z,4.60
2018-09-18T19:15:39.443Z,5.03
2018-09-18T19:18:07.651Z,5.87
2018-09-18T19:20:35.856Z,4.80
2018-09-18T19:23:04.002Z,4.50
2018-09-18T19:25:32.195Z,4.80
2018-09-18T19:28:00.284Z,4.93
2018-09-18T19:30:28.421Z,5.50
2018-09-18T19:32:56.648Z,5.57
2018-09-18T19:35:24.721Z,5.30
2018-09-18T19:37:53.101Z,5.53
2018-09-18T19:40:21.252Z,5.30
2018-09-18T19:42:49.370Z,5.47
2018-09-18T19:45:17.497Z,5.23
2018-09-18T19:47:45.639Z,5.90
2018-09-18T19:50:16.950Z,6.93
2018-09-18T19:52:46.140Z,5.63
2018-09-18T19:55:18.152Z,5.60
2018-09-18T19:57:59.058Z,5.60
2018-09-18T20:00:30.829Z,6.07
2018-09-18T20:02:58.946Z,6.30
2018-09-18T20:05:36.952Z,5.87
2018-09-18T20:08:05.052Z,4.93
2018-09-18T20:10:33.243Z,5.63
2018-09-18T20:13:01.378Z,5.27
2018-09-18T20:15:29.550Z,5.57
2018-09-18T20:17:57.686Z,5.10
2018-09-18T20:20:39.365Z,6.00
2018-09-18T20:23:20.034Z,6.47
2018-09-18T20:25:54.034Z,6.50
2018-09-18T20:28:28.317Z,5.70
2018-09-18T20:31:01.664Z,5.30
2018-09-18T20:33:30.833Z,5.43
2018-09-18T20:36:04.946Z,5.70
2018-09-18T20:38:35.074Z,6.10
2018-09-18T20:41:13.291Z,5.97
2018-09-18T20:43:44.727Z,5.67
2018-09-18T20:46:12.877Z,6.50
2018-09-18T20:48:41.008Z,6.27
2018-09-18T20:51:09.149Z,6.63
2018-09-18T20:53:37.302Z,5.93
2018-09-18T20:56:05.449Z,5.80
2018-09-18T20:58:33.601Z,6.10
2018-09-18T21:01:01.729Z,6.03
2018-09-18T21:03:29.852Z,6.50
2018-09-18T21:05:57.988Z,6.10
2018-09-18T21:08:26.126Z,6.13
2018-09-18T21:10:54.292Z,6.30
2018-09-18T21:13:22.440Z,6.23
2018-09-18T21:15:50.561Z,6.27
2018-09-18T21:18:18.693Z,6.30
2018-09-18T21:20:46.835Z,6.17
2018-09-18T21:23:14.960Z,6.03
2018-09-18T21:25:57.945Z,6.43
2018-09-18T21:28:26.072Z,6.87
2018-09-18T21:30:54.216Z,7.40
2018-09-18T21:33:22.374Z,6.20
2018-09-18T21:35:50.520Z,6.60
2018-09-18T21:38:18.643Z,6.77
2018-09-18T21:40:46.859Z,6.40
2018-09-18T21:43:15.292Z,6.70
2018-09-18T21:45:43.439Z,7.40
2018-09-18T21:48:11.584Z,6.80
2018-09-18T21:50:39.795Z,7.23
2018-09-18T21:53:10.115Z,7.47
2018-09-18T21:55:38.262Z,7.37
2018-09-18T21:58:06.378Z,7.47
2018-09-18T22:00:34.526Z,7.77
2018-09-18T22:03:02.663Z,7.40
2018-09-18T22:05:31.506Z,7.33
2018-09-18T22:08:00.799Z,7.93
2018-09-18T22:10:28.952Z,8.23
2018-09-18T22:12:57.969Z,6.97
2018-09-18T22:15:26.364Z,7.37
2018-09-18T22:17:54.500Z,7.43
2018-09-18T22:20:22.641Z,7.33
2018-09-18T22:22:50.927Z,7.20
2018-09-18T22:25:19.680Z,7.73
2018-09-18T22:27:47.884Z,7.50
2018-09-18T22:30:16.019Z,7.30
2018-09-18T22:32:44.186Z,7.60
2018-09-18T22:35:12.330Z,7.30
2018-09-18T22:37:40.466Z,7.10
2018-09-18T22:40:08.593Z,8.13
2018-09-18T22:42:36.753Z,7.37
2018-09-18T22:45:04.982Z,8.13
2018-09-18T22:47:33.113Z,8.33
2018-09-18T22:50:01.254Z,7.33
2018-09-18T22:52:29.398Z,7.90
2018-09-18T22:54:57.527Z,8.17
2018-09-18T22:57:25.729Z,7.30
2018-09-18T22:59:53.790Z,8.30
2018-09-18T23:02:21.949Z,8.90
2018-09-18T23:04:50.090Z,7.50
2018-09-18T23:07:18.229Z,7.97
2018-09-18T23:09:48.442Z,7.63
2018-09-18T23:12:16.564Z,6.70
2018-09-18T23:14:44.685Z,6.73
2018-09-18T23:17:13.318Z,5.93
2018-09-18T23:19:41.425Z,7.07
2018-09-18T23:22:09.593Z,7.30
2018-09-18T23:24:37.705Z,6.63
2018-09-18T23:27:05.998Z,6.70
2018-09-18T23:29:34.130Z,6.80
2018-09-18T23:32:02.263Z,6.67
2018-09-18T23:34:30.368Z,5.80
2018-09-18T23:36:58.530Z,6.13
2018-09-18T23:39:26.642Z,6.90
2018-09-18T23:41:54.781Z,7.33
2018-09-18T23:44:22.895Z,7.50
2018-09-18T23:46:51.037Z,7.47
2018-09-18T23:49:19.170Z,7.60
2018-09-18T23:51:47.321Z,8.03
2018-09-18T23:54:15.462Z,7.63
2018-09-18T23:56:43.602Z,8.30
2018-09-18T23:59:11.721Z,8.33
